createdAt,value
2022-09-02T00:01:00.552Z,99.90
2022-09-02T00:04:07.733Z,99.90
2022-09-02T00:07:11.058Z,99.90
2022-09-02T00:10:14.297Z,99.90
2022-09-02T00:13:20.739Z,99.90
2022-09-02T00:16:25.199Z,99.90
2022-09-02T00:19:29.832Z,99.90
2022-09-02T00:22:32.850Z,99.90
2022-09-02T00:25:36.617Z,99.90
2022-09-02T00:28:48.845Z,99.90
2022-09-02T00:31:52.453Z,99.90
2022-09-02T00:34:56.091Z,99.90
2022-09-02T00:38:00.655Z,99.90
2022-09-02T00:41:06.892Z,99.90
2022-09-02T00:44:13.650Z,99.90
2022-09-02T00:47:17.713Z,99.90
2022-09-02T00:50:27.891Z,99.90
2022-09-02T00:53:31.835Z,99.90
2022-09-02T00:56:37.071Z,99.90
2022-09-02T00:59:47.373Z,99.90
2022-09-02T01:02:54.197Z,99.90
2022-09-02T01:05:59.588Z,99.90
2022-09-02T01:09:08.438Z,99.90
2022-09-02T01:12:14.979Z,99.90
2022-09-02T01:15:19.369Z,99.90
2022-09-02T01:18:25.686Z,99.90
2022-09-02T01:21:28.806Z,99.90
2022-09-02T01:24:35.209Z,99.90
2022-09-02T01:27:38.202Z,99.90
2022-09-02T01:30:47.174Z,99.90
2022-09-02T01:33:51.314Z,99.90
2022-09-02T01:36:56.494Z,99.90
2022-09-02T01:40:01.389Z,99.90
2022-09-02T01:43:09.447Z,99.90
2022-09-02T01:46:12.549Z,99.90
2022-09-02T01:49:15.855Z,99.90
2022-09-02T01:52:19.891Z,99.90
2022-09-02T01:55:24.445Z,99.90
2022-09-02T01:58:27.478Z,99.90
2022-09-02T02:01:30.726Z,99.90
2022-09-02T02:04:33.980Z,99.90
2022-09-02T02:07:37.107Z,99.90
2022-09-02T02:10:43.844Z,99.90
2022-09-02T02:13:46.834Z,99.90
2022-09-02T02:16:51.069Z,99.90
2022-09-02T02:19:54.110Z,99.90
2022-09-02T02:22:57.117Z,99.90
2022-09-02T02:26:01.639Z,99.90
2022-09-02T02:29:05.053Z,99.90
2022-09-02T02:32:08.439Z,99.90
2022-09-02T02:35:11.963Z,99.90
2022-09-02T02:38:15.829Z,99.90
2022-09-02T02:41:20.730Z,99.90
2022-09-02T02:44:24.299Z,99.90
2022-09-02T02:47:27.641Z,99.90
2022-09-02T02:50:30.647Z,99.90
2022-09-02T02:53:36.891Z,99.90
2022-09-02T02:56:41.370Z,99.90
2022-09-02T02:59:44.425Z,99.90
2022-09-02T03:02:47.632Z,99.90
2022-09-02T03:05:52.296Z,99.90
2022-09-02T03:08:56.582Z,99.90
2022-09-02T03:12:01.433Z,99.90
2022-09-02T03:15:05.478Z,99.90
2022-09-02T03:18:09.051Z,99.90
2022-09-02T03:21:12.702Z,99.90
2022-09-02T03:24:15.747Z,99.90
2022-09-02T03:27:20.089Z,99.90
2022-09-02T03:30:26.068Z,99.90
2022-09-02T03:33:29.158Z,99.90
2022-09-02T03:36:34.854Z,99.90
2022-09-02T03:39:37.919Z,99.90
2022-09-02T03:42:42.393Z,99.90
2022-09-02T03:45:46.229Z,99.90
2022-09-02T03:48:51.897Z,99.90
2022-09-02T03:51:55.071Z,99.90
2022-09-02T03:54:58.155Z,99.90
2022-09-02T03:58:06.556Z,99.90
2022-09-02T04:01:15.503Z,99.90
2022-09-02T04:04:22.864Z,99.90
2022-09-02T04:07:26.064Z,99.90
2022-09-02T04:10:29.150Z,99.90
2022-09-02T04:13:34.234Z,99.90
2022-09-02T04:16:37.506Z,99.90
2022-09-02T04:19:40.693Z,99.90
2022-09-02T04:22:43.719Z,99.90
2022-09-02T04:25:46.789Z,99.90
2022-09-02T04:28:51.505Z,99.90
2022-09-02T04:31:54.887Z,99.90
2022-09-02T04:34:57.891Z,99.90
2022-09-02T04:38:00.889Z,99.90
2022-09-02T04:41:08.290Z,99.90
2022-09-02T04:44:12.747Z,99.90
2022-09-02T04:47:15.831Z,99.90
2022-09-02T04:50:19.146Z,99.90
2022-09-02T04:53:22.280Z,99.90
2022-09-02T04:56:27.752Z,99.90
2022-09-02T04:59:32.215Z,99.90
2022-09-02T05:02:35.731Z,99.90
2022-09-02T05:05:39.630Z,99.90
2022-09-02T05:08:42.809Z,99.90
2022-09-02T05:11:48.007Z,99.90
2022-09-02T05:14:52.382Z,99.90
2022-09-02T05:17:55.485Z,99.90
2022-09-02T05:20:58.522Z,99.90
2022-09-02T05:24:01.687Z,99.90
2022-09-02T05:27:04.951Z,99.90
2022-09-02T05:30:10.438Z,99.90
2022-09-02T05:33:14.649Z,99.90
2022-09-02T05:36:21.079Z,99.90
2022-09-02T05:39:24.139Z,99.90
2022-09-02T05:42:27.262Z,99.90
2022-09-02T05:45:31.706Z,99.90
2022-09-02T05:48:52.244Z,99.90
2022-09-02T05:51:57.179Z,99.90
2022-09-02T05:55:00.440Z,99.90
2022-09-02T05:58:03.470Z,99.90
2022-09-02T06:01:10.637Z,99.90
2022-09-02T06:04:13.784Z,99.90
2022-09-02T06:07:19.806Z,99.90
2022-09-02T06:10:22.803Z,99.90
2022-09-02T06:13:25.795Z,99.90
2022-09-02T06:16:30.442Z,99.90
2022-09-02T06:19:33.718Z,99.90
2022-09-02T06:22:36.733Z,99.90
2022-09-02T06:25:39.991Z,99.90
2022-09-02T06:28:43.239Z,99.90
2022-09-02T06:31:48.995Z,99.90
2022-09-02T06:34:52.006Z,99.90
2022-09-02T06:37:55.034Z,99.90
2022-09-02T06:40:58.031Z,99.90
2022-09-02T06:44:03.277Z,99.90
2022-09-02T06:47:07.746Z,99.90
2022-09-02T06:50:11.482Z,99.90
2022-09-02T06:53:15.020Z,99.90
2022-09-02T06:56:18.241Z,99.90
2022-09-02T06:59:22.489Z,99.90
2022-09-02T07:02:26.872Z,99.90
2022-09-02T07:05:28.935Z,99.90
2022-09-02T07:08:32.064Z,99.90
2022-09-02T07:11:36.250Z,99.90
2022-09-02T07:14:41.446Z,99.90
2022-09-02T07:17:45.883Z,99.90
2022-09-02T07:20:49.312Z,99.90
2022-09-02T07:23:52.716Z,99.90
2022-09-02T07:26:55.968Z,99.90
2022-09-02T07:30:00.025Z,99.90
2022-09-02T07:33:05.191Z,99.90
2022-09-02T07:36:11.139Z,99.90
2022-09-02T07:39:16.604Z,99.90
2022-09-02T07:42:19.681Z,99.90
2022-09-02T07:45:23.204Z,99.90
2022-09-02T07:48:28.691Z,99.90
2022-09-02T07:51:31.973Z,99.90
2022-09-02T07:54:35.071Z,99.90
2022-09-02T07:57:38.074Z,99.90
2022-09-02T08:00:42.772Z,99.90
2022-09-02T08:03:47.386Z,99.90
2022-09-02T08:06:52.129Z,99.90
2022-09-02T08:09:55.148Z,99.90
2022-09-02T08:13:00.737Z,99.90
2022-09-02T08:16:05.035Z,99.90
2022-09-02T08:19:09.575Z,99.90
2022-09-02T08:22:12.640Z,99.90
2022-09-02T08:25:18.177Z,99.90
2022-09-02T08:28:21.230Z,99.90
2022-09-02T08:31:24.383Z,99.90
2022-09-02T08:34:29.228Z,99.90
2022-09-02T08:37:33.585Z,99.90
2022-09-02T08:40:39.366Z,99.90
2022-09-02T08:43:45.062Z,99.90
2022-09-02T08:46:49.935Z,99.90
2022-09-02T08:49:58.408Z,99.90
2022-09-02T08:53:09.024Z,99.90
2022-09-02T08:56:13.047Z,99.90
2022-09-02T08:59:16.421Z,99.90
2022-09-02T09:02:27.622Z,99.90
2022-09-02T09:05:44.165Z,99.90
2022-09-02T09:08:55.607Z,99.90
2022-09-02T09:12:08.990Z,99.90
2022-09-02T09:15:16.466Z,99.90
2022-09-02T09:18:26.491Z,99.90
2022-09-02T09:21:32.093Z,99.90
2022-09-02T09:24:39.500Z,99.90
2022-09-02T09:27:42.811Z,99.90
2022-09-02T09:30:45.945Z,99.90
2022-09-02T09:33:59.557Z,99.90
2022-09-02T09:37:03.943Z,99.90
2022-09-02T09:40:31.457Z,99.90
2022-09-02T09:43:34.522Z,99.90
2022-09-02T09:46:37.529Z,99.90
2022-09-02T09:49:40.738Z,99.90
2022-09-02T09:52:45.299Z,99.90
2022-09-02T09:55:54.390Z,99.90
2022-09-02T09:58:57.454Z,99.90
2022-09-02T10:02:00.558Z,99.90
2022-09-02T10:05:17.014Z,99.90
2022-09-02T10:08:24.163Z,99.90
2022-09-02T10:11:28.975Z,99.90
2022-09-02T10:14:36.344Z,99.90
2022-09-02T10:17:51.898Z,99.90
2022-09-02T10:21:15.311Z,99.90
2022-09-02T10:24:38.239Z,99.90
2022-09-02T10:27:50.836Z,99.90
2022-09-02T10:31:02.713Z,99.90
2022-09-02T10:34:17.060Z,99.90
2022-09-02T10:37:22.967Z,99.90
2022-09-02T10:40:37.571Z,99.90
2022-09-02T10:43:56.745Z,99.90
2022-09-02T10:47:02.620Z,99.90
2022-09-02T10:50:16.897Z,99.90
2022-09-02T10:53:37.409Z,99.90
2022-09-02T10:56:50.622Z,99.90
2022-09-02T11:00:12.657Z,99.90
2022-09-02T11:03:20.799Z,99.90
2022-09-02T11:06:35.351Z,99.60
2022-09-02T11:09:48.916Z,99.90
2022-09-02T11:13:00.727Z,99.40
2022-09-02T11:16:15.301Z,98.90
2022-09-02T11:19:23.575Z,97.30
2022-09-02T11:22:35.613Z,96.20
2022-09-02T11:25:47.011Z,94.50
2022-09-02T11:28:57.638Z,93.40
2022-09-02T11:32:06.890Z,92.30
2022-09-02T11:35:15.605Z,91.20
2022-09-02T11:38:32.670Z,91.10
2022-09-02T11:41:48.835Z,92.80
2022-09-02T11:45:18.183Z,92.00
2022-09-02T11:48:54.533Z,92.10
2022-09-02T11:52:25.471Z,92.70
2022-09-02T11:55:35.285Z,93.00
2022-09-02T11:58:40.613Z,94.10
2022-09-02T12:01:52.301Z,94.20
2022-09-02T12:05:29.721Z,94.30
2022-09-02T12:09:04.659Z,94.10
2022-09-02T12:12:07.831Z,94.40
2022-09-02T12:15:16.870Z,94.30
2022-09-02T12:18:31.972Z,94.90
2022-09-02T12:21:36.262Z,94.80
2022-09-02T12:24:52.739Z,95.00
2022-09-02T12:28:19.091Z,94.80
2022-09-02T12:31:41.164Z,94.60
2022-09-02T12:35:13.403Z,95.20
2022-09-02T12:38:34.045Z,94.40
2022-09-02T12:41:44.376Z,94.40
2022-09-02T12:44:54.376Z,95.20
2022-09-02T12:48:02.197Z,95.80
2022-09-02T12:51:06.690Z,95.60
2022-09-02T12:54:09.871Z,94.70
2022-09-02T12:57:16.188Z,91.80
2022-09-02T13:00:28.529Z,91.50
2022-09-02T13:03:58.682Z,92.30
2022-09-02T13:07:28.597Z,92.90
2022-09-02T13:11:12.864Z,93.30
2022-09-02T13:14:47.294Z,92.10
2022-09-02T13:18:20.694Z,86.70
2022-09-02T13:21:51.324Z,85.10
2022-09-02T13:25:19.682Z,87.20
2022-09-02T13:28:49.250Z,89.60
2022-09-02T13:32:01.343Z,89.00
2022-09-02T13:35:07.991Z,90.30
2022-09-02T13:38:12.746Z,91.60
2022-09-02T13:41:30.721Z,92.20
2022-09-02T13:44:33.845Z,91.60
2022-09-02T13:47:37.531Z,91.50
2022-09-02T13:50:45.432Z,91.60
2022-09-02T13:54:21.787Z,91.40
2022-09-02T13:57:21.047Z,91.20
2022-09-02T14:00:32.048Z,91.50
2022-09-02T14:03:35.340Z,91.10
2022-09-02T14:06:41.215Z,91.00
2022-09-02T14:09:46.535Z,91.30
2022-09-02T14:12:52.090Z,90.90
2022-09-02T14:15:55.642Z,91.10
2022-09-02T14:19:06.862Z,91.40
2022-09-02T14:22:23.959Z,92.20
2022-09-02T14:25:28.815Z,92.10
2022-09-02T14:28:35.655Z,92.20
2022-09-02T14:31:38.756Z,92.80
2022-09-02T14:34:43.310Z,92.70
2022-09-02T14:37:51.683Z,92.50
2022-09-02T14:41:01.847Z,92.50
2022-09-02T14:44:13.491Z,91.30
2022-09-02T14:47:20.800Z,91.30
2022-09-02T14:50:30.023Z,91.40
2022-09-02T14:53:33.658Z,91.30
2022-09-02T14:56:48.086Z,91.30
2022-09-02T14:59:52.625Z,91.20
2022-09-02T15:02:59.399Z,91.40
2022-09-02T15:06:02.408Z,92.00
2022-09-02T15:09:05.461Z,91.50
2022-09-02T15:12:09.126Z,91.80
2022-09-02T15:15:13.589Z,91.50
2022-09-02T15:18:16.619Z,91.50
2022-09-02T15:21:20.980Z,92.00
2022-09-02T15:24:24.280Z,92.20
2022-09-02T15:27:27.333Z,92.20
2022-09-02T15:30:31.673Z,92.50
2022-09-02T15:33:35.112Z,92.90
2022-09-02T15:36:38.136Z,93.20
2022-09-02T15:39:41.607Z,92.80
2022-09-02T15:42:44.686Z,92.50
2022-09-02T15:45:49.381Z,92.30
2022-09-02T15:48:53.281Z,91.60
2022-09-02T15:51:56.459Z,91.90
2022-09-02T15:54:59.961Z,92.00
2022-09-02T15:58:03.082Z,91.50
2022-09-02T16:01:07.813Z,91.40
2022-09-02T16:04:11.631Z,91.70
2022-09-02T16:07:16.869Z,91.30
2022-09-02T16:10:20.419Z,91.80
2022-09-02T16:13:23.518Z,91.70
2022-09-02T16:16:28.047Z,92.00
2022-09-02T16:19:31.187Z,92.40
2022-09-02T16:22:34.200Z,92.80
2022-09-02T16:25:38.111Z,93.30
2022-09-02T16:28:42.902Z,91.20
2022-09-02T16:35:11.992Z,91.70
2022-09-02T16:38:15.710Z,91.90
2022-09-02T16:41:28.150Z,92.30
2022-09-02T16:44:33.779Z,92.30
2022-09-02T16:47:38.147Z,92.70
2022-09-02T16:50:41.129Z,92.00
2022-09-02T16:53:46.308Z,92.10
2022-09-02T16:56:50.687Z,92.10
2022-09-02T16:59:53.672Z,92.70
2022-09-02T17:02:58.005Z,92.50
2022-09-02T17:06:01.337Z,92.10
2022-09-02T17:09:05.520Z,92.80
2022-09-02T17:12:08.811Z,92.50
2022-09-02T17:15:11.795Z,92.80
2022-09-02T17:18:16.147Z,93.40
2022-09-02T17:21:23.981Z,93.20
2022-09-02T17:24:30.492Z,93.40
2022-09-02T17:27:36.190Z,93.40
2022-09-02T17:30:39.262Z,93.40
2022-09-02T17:33:43.767Z,94.10
2022-09-02T17:36:47.847Z,93.80
2022-09-02T17:39:51.338Z,94.10
2022-09-02T17:42:53.499Z,94.40
2022-09-02T17:46:05.995Z,94.60
2022-09-02T17:49:17.341Z,95.10
2022-09-02T17:52:23.088Z,95.20
2022-09-02T17:55:26.339Z,95.30
2022-09-02T17:58:34.874Z,96.00
2022-09-02T18:01:42.976Z,95.60
2022-09-02T18:04:59.357Z,96.20
2022-09-02T18:08:09.625Z,96.50
2022-09-02T18:11:12.634Z,96.40
2022-09-02T18:14:22.119Z,96.60
2022-09-02T18:17:31.887Z,96.70
2022-09-02T18:20:43.017Z,97.20
2022-09-02T18:23:57.751Z,97.30
2022-09-02T18:27:10.394Z,97.90
2022-09-02T18:30:17.001Z,97.70
2022-09-02T18:33:39.424Z,97.70
2022-09-02T18:36:55.607Z,97.90
2022-09-02T18:40:10.447Z,98.50
2022-09-02T18:43:22.129Z,98.50
2022-09-02T18:46:28.965Z,98.50
2022-09-02T18:49:36.302Z,98.90
2022-09-02T18:52:42.960Z,99.20
2022-09-02T18:55:48.391Z,98.80
2022-09-02T18:58:57.957Z,99.50
2022-09-02T19:02:07.588Z,99.10
2022-09-02T19:05:13.067Z,99.40
2022-09-02T19:08:34.055Z,99.40
2022-09-02T19:11:38.621Z,99.40
2022-09-02T19:14:41.685Z,99.50
2022-09-02T19:17:44.714Z,99.90
2022-09-02T19:20:48.039Z,99.90
2022-09-02T19:23:52.580Z,99.90
2022-09-02T19:27:02.652Z,99.90
2022-09-02T19:30:09.190Z,99.90
2022-09-02T19:33:14.647Z,99.90
2022-09-02T19:36:18.985Z,99.90
2022-09-02T19:39:23.415Z,99.90
2022-09-02T19:42:27.052Z,99.90
2022-09-02T19:45:30.795Z,99.90
2022-09-02T19:48:35.853Z,99.90
2022-09-02T19:51:38.867Z,99.90
2022-09-02T19:54:44.345Z,99.90
2022-09-02T19:57:47.750Z,99.90
2022-09-02T20:00:52.087Z,99.90
2022-09-02T20:03:55.139Z,99.90
2022-09-02T20:06:58.821Z,99.90
2022-09-02T20:10:03.302Z,99.90
2022-09-02T20:13:07.243Z,99.90
2022-09-02T20:16:19.833Z,99.90
2022-09-02T20:19:23.127Z,99.90
2022-09-02T20:22:30.574Z,99.90
2022-09-02T20:25:47.409Z,99.90
2022-09-02T20:29:00.511Z,99.90
2022-09-02T20:32:11.232Z,99.90
2022-09-02T20:35:38.319Z,99.90
2022-09-02T20:39:05.346Z,99.90
2022-09-02T20:42:26.171Z,99.90
2022-09-02T20:45:36.301Z,99.90
2022-09-02T20:48:53.074Z,99.90
2022-09-02T20:52:03.343Z,99.90
2022-09-02T20:55:15.430Z,99.90
2022-09-02T20:58:32.843Z,99.90
2022-09-02T21:01:38.998Z,99.90
2022-09-02T21:04:46.887Z,99.90
2022-09-02T21:07:56.051Z,99.90
2022-09-02T21:11:01.409Z,99.90
2022-09-02T21:14:10.609Z,99.90
2022-09-02T21:17:20.698Z,99.90
2022-09-02T21:20:29.714Z,99.90
2022-09-02T21:23:38.417Z,99.90
2022-09-02T21:26:49.145Z,99.90
2022-09-02T21:30:02.293Z,99.90
2022-09-02T21:33:09.737Z,99.90
2022-09-02T21:36:23.982Z,99.90
2022-09-02T21:39:29.672Z,99.90
2022-09-02T21:42:48.315Z,99.90
2022-09-02T21:46:01.430Z,99.90
2022-09-02T21:49:13.914Z,99.90
2022-09-02T21:52:27.055Z,99.90
2022-09-02T21:55:48.668Z,99.90
2022-09-02T21:59:06.295Z,99.90
2022-09-02T22:02:16.098Z,99.90
2022-09-02T22:05:33.165Z,99.90
2022-09-02T22:08:44.619Z,99.90
2022-09-02T22:11:54.352Z,99.90
2022-09-02T22:15:04.023Z,99.90
2022-09-02T22:18:17.569Z,99.90
2022-09-02T22:21:30.413Z,99.90
2022-09-02T22:24:37.156Z,99.90
2022-09-02T22:27:46.145Z,99.90
2022-09-02T22:30:56.647Z,99.90
2022-09-02T22:34:04.696Z,99.90
2022-09-02T22:37:12.029Z,99.90
2022-09-02T22:40:17.520Z,99.90
2022-09-02T22:43:24.550Z,99.90
2022-09-02T22:46:50.682Z,99.90
2022-09-02T22:50:15.578Z,99.90
2022-09-02T22:53:18.579Z,99.90
2022-09-02T22:56:35.848Z,99.90
2022-09-02T22:59:48.674Z,99.90
2022-09-02T23:03:04.842Z,99.90
2022-09-02T23:06:19.853Z,99.90
2022-09-02T23:09:22.933Z,99.90
2022-09-02T23:12:31.890Z,99.90
2022-09-02T23:15:42.546Z,99.90
2022-09-02T23:18:57.812Z,99.90
2022-09-02T23:22:09.324Z,99.90
2022-09-02T23:25:33.522Z,99.90
2022-09-02T23:28:52.246Z,99.90
2022-09-02T23:32:33.645Z,99.90
2022-09-02T23:35:45.670Z,99.90
2022-09-02T23:39:08.483Z,99.90
2022-09-02T23:42:13.392Z,99.90
2022-09-02T23:45:22.472Z,99.90
2022-09-02T23:48:38.588Z,99.90
2022-09-02T23:51:52.452Z,99.90
2022-09-02T23:55:07.632Z,99.90
2022-09-02T23:58:36.877Z,99.90
